createdAt,value
2018-12-14T00:00:32.484Z,3.16
2018-12-14T00:03:00.780Z,3.21
2018-12-14T00:05:29.052Z,3.19
2018-12-14T00:07:57.316Z,3.22
2018-12-14T00:10:25.713Z,3.13
2018-12-14T00:12:53.952Z,3.17
2018-12-14T00:15:22.268Z,3.15
2018-12-14T00:17:50.501Z,3.12
2018-12-14T00:20:18.812Z,3.19
2018-12-14T00:22:47.051Z,3.21
2018-12-14T00:25:15.243Z,3.25
2018-12-14T00:27:43.540Z,3.22
2018-12-14T00:30:11.905Z,3.24
2018-12-14T00:32:40.172Z,3.24
2018-12-14T00:35:08.408Z,3.23
2018-12-14T00:37:36.649Z,3.28
2018-12-14T00:40:05.105Z,3.26
2018-12-14T00:42:33.348Z,3.36
2018-12-14T00:45:01.641Z,3.34
2018-12-14T00:47:29.928Z,3.38
2018-12-14T00:49:58.269Z,3.39
2018-12-14T00:52:26.464Z,3.37
2018-12-14T00:54:54.764Z,3.36
2018-12-14T00:57:23.068Z,3.37
2018-12-14T00:59:51.323Z,3.37
2018-12-14T01:02:24.940Z,3.35
2018-12-14T01:04:53.204Z,3.30
2018-12-14T01:07:21.483Z,3.33
2018-12-14T01:09:50.003Z,3.36
2018-12-14T01:12:18.188Z,3.28
2018-12-14T01:14:46.371Z,3.31
2018-12-14T01:17:14.847Z,3.38
2018-12-14T01:19:43.464Z,3.35
2018-12-14T01:22:11.662Z,3.43
2018-12-14T01:24:39.950Z,3.45
2018-12-14T01:27:08.179Z,3.42
2018-12-14T01:29:36.388Z,3.38
2018-12-14T01:32:04.672Z,3.40
2018-12-14T01:34:33.049Z,3.42
2018-12-14T01:37:01.404Z,3.44
2018-12-14T01:39:29.712Z,3.50
2018-12-14T01:41:57.980Z,3.50
2018-12-14T01:44:26.160Z,3.50
2018-12-14T01:46:54.503Z,3.50
2018-12-14T01:49:22.688Z,3.55
2018-12-14T01:51:50.996Z,3.53
2018-12-14T01:54:19.256Z,3.54
2018-12-14T01:56:47.620Z,3.49
2018-12-14T01:59:15.909Z,3.51
2018-12-14T02:01:44.292Z,3.53
2018-12-14T02:04:12.548Z,3.47
2018-12-14T02:06:40.835Z,3.44
2018-12-14T02:09:09.085Z,3.40
2018-12-14T02:11:37.288Z,3.38
2018-12-14T02:14:05.568Z,3.44
2018-12-14T02:16:33.788Z,3.46
2018-12-14T02:19:01.983Z,3.45
2018-12-14T02:21:30.267Z,3.46
2018-12-14T02:23:58.493Z,3.36
2018-12-14T02:26:26.852Z,3.42
2018-12-14T02:28:55.132Z,3.47
2018-12-14T02:31:23.436Z,3.44
2018-12-14T02:33:51.614Z,3.18
2018-12-14T02:36:20.064Z,3.24
2018-12-14T02:38:48.334Z,3.35
2018-12-14T02:41:16.680Z,3.38
2018-12-14T02:43:45.137Z,3.22
2018-12-14T02:46:13.356Z,3.20
2018-12-14T02:48:41.640Z,3.19
2018-12-14T02:51:09.916Z,3.16
2018-12-14T02:53:38.148Z,3.10
2018-12-14T02:56:06.472Z,3.09
2018-12-14T02:58:34.724Z,3.08
2018-12-14T03:01:02.925Z,3.11
2018-12-14T03:03:31.149Z,3.16
2018-12-14T03:05:59.494Z,3.08
2018-12-14T03:08:27.692Z,3.06
2018-12-14T03:10:55.925Z,3.00
2018-12-14T03:13:24.152Z,2.98
2018-12-14T03:15:52.376Z,2.93
2018-12-14T03:18:20.604Z,2.92
2018-12-14T03:20:48.940Z,2.88
2018-12-14T03:23:17.181Z,2.86
2018-12-14T03:25:45.956Z,2.92
2018-12-14T03:28:14.179Z,2.80
2018-12-14T03:30:42.449Z,2.81
2018-12-14T03:33:10.726Z,2.86
2018-12-14T03:35:39.000Z,2.78
2018-12-14T03:38:07.351Z,2.79
2018-12-14T03:40:35.694Z,2.83
2018-12-14T03:43:03.889Z,2.95
2018-12-14T03:45:32.120Z,2.98
2018-12-14T03:48:00.353Z,2.99
2018-12-14T03:50:28.730Z,2.92
2018-12-14T03:52:57.145Z,2.93
2018-12-14T03:55:25.428Z,2.94
2018-12-14T03:57:54.495Z,2.88
2018-12-14T04:00:22.774Z,2.86
2018-12-14T04:02:51.532Z,2.87
2018-12-14T04:05:20.126Z,2.83
2018-12-14T04:07:48.441Z,2.85
2018-12-14T04:10:16.664Z,2.79
2018-12-14T04:12:44.881Z,2.74
2018-12-14T04:15:13.351Z,2.66
2018-12-14T04:17:41.601Z,2.69
2018-12-14T04:20:10.144Z,2.71
2018-12-14T04:22:38.365Z,2.63
2018-12-14T04:25:06.766Z,2.60
2018-12-14T04:27:35.265Z,2.52
2018-12-14T04:30:03.758Z,2.56
2018-12-14T04:32:31.976Z,2.52
2018-12-14T04:35:00.401Z,2.57
2018-12-14T04:37:28.616Z,2.60
2018-12-14T04:39:56.846Z,2.62
2018-12-14T04:42:25.428Z,2.56
2018-12-14T04:44:53.668Z,2.54
2018-12-14T04:47:21.955Z,2.54
2018-12-14T04:49:50.585Z,2.53
2018-12-14T04:52:18.812Z,2.53
2018-12-14T04:54:47.077Z,2.48
2018-12-14T04:57:15.244Z,2.52
2018-12-14T04:59:43.477Z,2.54
2018-12-14T05:02:11.850Z,2.57
2018-12-14T05:04:40.080Z,2.57
2018-12-14T05:07:08.392Z,2.55
2018-12-14T05:09:36.582Z,2.55
2018-12-14T05:12:05.037Z,2.65
2018-12-14T05:14:33.536Z,2.61
2018-12-14T05:17:01.798Z,2.66
2018-12-14T05:19:30.073Z,2.72
2018-12-14T05:21:58.674Z,2.71
2018-12-14T05:24:26.960Z,2.70
2018-12-14T05:26:56.069Z,2.69
2018-12-14T05:29:24.340Z,2.71
2018-12-14T05:31:52.587Z,2.66
2018-12-14T05:34:20.832Z,2.69
2018-12-14T05:36:49.064Z,2.68
2018-12-14T05:39:17.351Z,2.64
2018-12-14T05:41:45.596Z,2.72
2018-12-14T05:44:13.840Z,2.69
2018-12-14T05:46:42.057Z,2.65
2018-12-14T05:49:10.284Z,2.64
2018-12-14T05:51:38.536Z,2.68
2018-12-14T05:54:06.774Z,2.66
2018-12-14T05:56:35.072Z,2.60
2018-12-14T05:59:03.396Z,2.55
2018-12-14T06:01:31.777Z,2.52
2018-12-14T06:04:00.301Z,2.54
2018-12-14T06:06:28.516Z,2.52
2018-12-14T06:08:56.768Z,2.61
2018-12-14T06:11:25.056Z,2.51
2018-12-14T06:13:53.297Z,2.52
2018-12-14T06:16:21.500Z,2.49
2018-12-14T06:18:49.741Z,2.50
2018-12-14T06:21:17.940Z,2.52
2018-12-14T06:23:46.188Z,2.59
2018-12-14T06:26:14.425Z,2.50
2018-12-14T06:28:42.656Z,2.52
2018-12-14T06:31:10.873Z,2.61
2018-12-14T06:33:39.088Z,2.61
2018-12-14T06:36:07.356Z,2.61
2018-12-14T06:38:35.560Z,2.62
2018-12-14T06:41:03.797Z,2.58
2018-12-14T06:43:32.032Z,2.58
2018-12-14T06:46:00.248Z,2.59
2018-12-14T06:48:28.504Z,2.62
2018-12-14T06:50:57.130Z,2.62
2018-12-14T06:53:25.376Z,2.72
2018-12-14T06:55:53.612Z,2.74
2018-12-14T06:58:21.816Z,2.76
2018-12-14T07:00:50.074Z,2.77
2018-12-14T07:03:18.277Z,2.79
2018-12-14T07:05:46.488Z,2.81
2018-12-14T07:08:14.717Z,2.74
2018-12-14T07:10:42.927Z,2.82
2018-12-14T07:13:11.177Z,2.80
2018-12-14T07:15:39.489Z,2.80
2018-12-14T07:18:07.736Z,2.75
2018-12-14T07:20:36.140Z,2.84
2018-12-14T07:23:04.336Z,2.62
2018-12-14T07:25:32.676Z,2.59
2018-12-14T07:28:00.884Z,2.57
2018-12-14T07:30:29.112Z,2.56
2018-12-14T07:32:57.331Z,2.66
2018-12-14T07:35:25.573Z,2.64
2018-12-14T07:37:53.783Z,2.72
2018-12-14T07:40:22.078Z,2.66
2018-12-14T07:42:50.276Z,2.61
2018-12-14T07:45:18.644Z,2.72
2018-12-14T07:47:46.829Z,2.67
2018-12-14T07:50:15.020Z,2.73
2018-12-14T07:52:43.280Z,2.68
2018-12-14T07:55:11.469Z,2.72
2018-12-14T07:57:39.711Z,2.78
2018-12-14T08:00:08.872Z,2.80
2018-12-14T08:02:37.328Z,2.97
2018-12-14T08:05:06.448Z,3.11
2018-12-14T08:07:34.876Z,3.14
2018-12-14T08:10:03.448Z,3.19
2018-12-14T08:12:31.744Z,3.26
2018-12-14T08:14:59.956Z,3.29
2018-12-14T08:17:28.190Z,3.33
2018-12-14T08:19:56.384Z,3.38
2018-12-14T08:22:24.733Z,3.42
2018-12-14T08:24:52.957Z,3.49
2018-12-14T08:27:21.145Z,3.57
2018-12-14T08:29:49.380Z,3.66
2018-12-14T08:32:18.179Z,3.70
2018-12-14T08:34:50.937Z,3.73
2018-12-14T08:37:16.662Z,3.73
2018-12-14T08:39:44.873Z,3.70
2018-12-14T08:42:13.101Z,3.74
2018-12-14T08:44:41.409Z,3.69
2018-12-14T08:47:09.768Z,3.39
2018-12-14T08:49:37.958Z,3.38
2018-12-14T08:52:06.188Z,3.36
2018-12-14T08:54:34.412Z,3.47
2018-12-14T08:57:02.752Z,3.51
2018-12-14T08:59:30.952Z,3.63
2018-12-14T09:01:59.172Z,3.77
2018-12-14T09:04:27.391Z,3.80
2018-12-14T09:06:55.626Z,3.86
2018-12-14T09:09:23.814Z,3.94
2018-12-14T09:11:52.008Z,4.01
2018-12-14T09:14:20.764Z,4.08
2018-12-14T09:16:48.956Z,4.15
2018-12-14T09:19:17.185Z,4.18
2018-12-14T09:21:45.533Z,4.24
2018-12-14T09:24:13.752Z,4.30
2018-12-14T09:26:41.965Z,4.31
2018-12-14T09:29:10.556Z,4.26
2018-12-14T09:31:39.044Z,4.35
2018-12-14T09:34:07.353Z,4.42
2018-12-14T09:36:35.699Z,4.39
2018-12-14T09:39:05.668Z,4.44
2018-12-14T09:41:33.941Z,4.52
2018-12-14T09:44:02.141Z,4.46
2018-12-14T09:46:36.882Z,4.45
2018-12-14T09:49:00.716Z,4.47
2018-12-14T09:51:29.020Z,4.48
2018-12-14T09:53:57.332Z,4.32
2018-12-14T09:56:25.625Z,4.24
2018-12-14T09:58:53.853Z,4.15
2018-12-14T10:01:22.057Z,4.02
2018-12-14T10:03:50.540Z,3.93
2018-12-14T10:06:19.235Z,3.88
2018-12-14T10:08:47.481Z,3.73
2018-12-14T10:11:16.133Z,3.48
2018-12-14T10:13:44.336Z,3.37
2018-12-14T10:16:13.249Z,3.50
2018-12-14T10:18:41.736Z,3.55
2018-12-14T10:21:10.096Z,3.73
2018-12-14T10:23:38.393Z,3.90
2018-12-14T10:26:06.620Z,3.99
2018-12-14T10:28:34.824Z,4.08
2018-12-14T10:31:03.021Z,4.01
2018-12-14T10:33:31.264Z,4.06
2018-12-14T10:35:59.457Z,4.13
2018-12-14T10:38:27.701Z,4.08
2018-12-14T10:40:55.893Z,4.17
2018-12-14T10:43:24.136Z,4.22
2018-12-14T10:45:52.768Z,4.31
2018-12-14T10:48:21.208Z,4.25
2018-12-14T10:50:49.440Z,4.24
2018-12-14T10:53:17.672Z,4.31
2018-12-14T10:55:45.909Z,4.30
2018-12-14T10:58:14.220Z,4.30
2018-12-14T11:00:47.724Z,4.29
2018-12-14T11:03:15.953Z,4.32
2018-12-14T11:05:44.151Z,4.43
2018-12-14T11:08:12.344Z,4.46
2018-12-14T11:10:40.585Z,4.43
2018-12-14T11:13:09.696Z,4.56
2018-12-14T11:15:37.880Z,4.63
2018-12-14T11:18:06.209Z,4.67
2018-12-14T11:20:34.439Z,4.67
2018-12-14T11:23:02.660Z,4.71
2018-12-14T11:25:30.845Z,4.68
2018-12-14T11:27:59.091Z,4.81
2018-12-14T11:30:27.273Z,4.76
2018-12-14T11:32:55.538Z,4.66
2018-12-14T11:35:23.740Z,4.60
2018-12-14T11:37:51.920Z,4.58
2018-12-14T11:40:20.145Z,4.55
2018-12-14T11:42:48.388Z,4.48
2018-12-14T11:45:16.588Z,4.44
2018-12-14T11:47:44.782Z,4.41
2018-12-14T11:50:13.020Z,4.51
2018-12-14T11:52:41.302Z,4.48
2018-12-14T11:55:10.489Z,4.41
2018-12-14T11:57:38.717Z,4.43
2018-12-14T12:00:10.981Z,4.46
2018-12-14T12:02:43.132Z,4.41
2018-12-14T12:05:10.292Z,4.58
2018-12-14T12:07:39.772Z,4.67
2018-12-14T12:10:09.868Z,4.73
2018-12-14T12:12:38.740Z,4.84
2018-12-14T12:15:07.350Z,4.86
2018-12-14T12:17:37.132Z,4.89
2018-12-14T12:20:05.848Z,4.96
2018-12-14T12:22:34.088Z,4.97
2018-12-14T12:25:02.416Z,5.02
2018-12-14T12:27:30.661Z,5.08
2018-12-14T12:29:58.909Z,5.08
2018-12-14T12:32:27.248Z,4.93
2018-12-14T12:34:55.488Z,4.83
2018-12-14T12:37:23.789Z,4.75
2018-12-14T12:39:51.980Z,4.69
2018-12-14T12:42:20.213Z,4.58
2018-12-14T12:44:48.452Z,4.54
2018-12-14T12:47:16.885Z,4.45
2018-12-14T12:49:45.112Z,4.45
2018-12-14T12:52:13.323Z,4.44
2018-12-14T12:54:41.598Z,4.38
2018-12-14T12:57:09.839Z,4.41
2018-12-14T12:59:38.172Z,4.41
2018-12-14T13:02:06.477Z,4.42
2018-12-14T13:04:35.044Z,4.46
2018-12-14T13:07:03.349Z,4.40
2018-12-14T13:09:31.588Z,4.38
2018-12-14T13:11:59.773Z,4.43
2018-12-14T13:14:28.033Z,4.42
2018-12-14T13:16:56.323Z,4.44
2018-12-14T13:19:24.553Z,4.50
2018-12-14T13:21:52.771Z,4.53
2018-12-14T13:24:20.996Z,4.48
2018-12-14T13:26:49.236Z,4.54
2018-12-14T13:29:17.488Z,4.50
2018-12-14T13:31:45.709Z,4.44
2018-12-14T13:34:13.953Z,4.42
2018-12-14T13:36:42.181Z,4.37
2018-12-14T13:39:10.373Z,4.35
2018-12-14T13:41:38.769Z,4.27
2018-12-14T13:44:07.111Z,4.15
2018-12-14T13:46:35.315Z,4.04
2018-12-14T13:49:03.556Z,4.05
2018-12-14T13:51:31.933Z,3.98
2018-12-14T13:54:00.117Z,4.03
2018-12-14T13:56:28.342Z,4.01
2018-12-14T13:58:56.564Z,3.98
2018-12-14T14:01:24.823Z,4.03
2018-12-14T14:03:53.052Z,4.02
2018-12-14T14:06:21.265Z,4.02
2018-12-14T14:08:49.456Z,4.05
2018-12-14T14:11:17.704Z,4.05
2018-12-14T14:13:45.889Z,4.01
2018-12-14T14:16:14.164Z,3.98
2018-12-14T14:18:42.413Z,3.96
2018-12-14T14:21:10.648Z,3.91
2018-12-14T14:23:38.937Z,3.88
2018-12-14T14:26:07.172Z,3.94
2018-12-14T14:28:35.442Z,3.89
2018-12-14T14:31:03.642Z,3.83
2018-12-14T14:33:31.864Z,3.86
2018-12-14T14:36:00.054Z,3.87
2018-12-14T14:38:28.240Z,3.87
2018-12-14T14:40:56.477Z,3.86
2018-12-14T14:43:24.741Z,3.84
2018-12-14T14:45:52.939Z,3.87
2018-12-14T14:48:21.120Z,3.86
2018-12-14T14:50:49.383Z,3.84
2018-12-14T14:53:17.568Z,3.82
2018-12-14T14:55:45.803Z,3.86
2018-12-14T14:58:14.045Z,3.88
2018-12-14T15:00:42.233Z,3.89
2018-12-14T15:03:10.549Z,3.91
2018-12-14T15:05:39.129Z,3.86
2018-12-14T15:08:07.487Z,3.72
2018-12-14T15:10:35.684Z,3.74
2018-12-14T15:13:03.945Z,3.72
2018-12-14T15:15:32.128Z,3.74
2018-12-14T15:18:00.358Z,3.74
2018-12-14T15:20:29.141Z,3.67
2018-12-14T15:22:57.376Z,3.72
2018-12-14T15:25:25.610Z,3.67
2018-12-14T15:27:53.804Z,3.63
2018-12-14T15:30:22.014Z,3.70
2018-12-14T15:32:50.263Z,3.68
2018-12-14T15:35:18.508Z,3.70
2018-12-14T15:37:46.908Z,3.68
2018-12-14T15:40:15.096Z,3.65
2018-12-14T15:42:43.316Z,3.64
2018-12-14T15:45:13.212Z,3.66
2018-12-14T15:47:43.567Z,3.54
2018-12-14T15:50:11.817Z,3.52
2018-12-14T15:52:40.004Z,3.58
2018-12-14T15:55:08.447Z,3.59
2018-12-14T15:57:36.658Z,3.56
2018-12-14T16:00:05.756Z,3.57
2018-12-14T16:02:33.964Z,3.28
2018-12-14T16:05:02.176Z,3.18
2018-12-14T16:07:30.418Z,3.12
2018-12-14T16:09:58.637Z,3.20
2018-12-14T16:12:26.972Z,3.12
2018-12-14T16:14:55.228Z,3.12
2018-12-14T16:17:23.515Z,3.13
2018-12-14T16:19:51.905Z,3.09
2018-12-14T16:22:20.278Z,3.12
2018-12-14T16:24:48.593Z,3.13
2018-12-14T16:27:17.025Z,3.09
2018-12-14T16:29:45.315Z,3.15
2018-12-14T16:32:13.516Z,3.07
2018-12-14T16:34:41.756Z,3.01
2018-12-14T16:37:09.952Z,3.06
2018-12-14T16:39:38.511Z,3.17
2018-12-14T16:42:06.945Z,3.18
2018-12-14T16:44:35.172Z,3.09
2018-12-14T16:47:03.532Z,2.79
2018-12-14T16:49:31.740Z,2.68
2018-12-14T16:51:59.928Z,2.69
2018-12-14T16:54:28.157Z,2.70
2018-12-14T16:56:56.406Z,2.60
2018-12-14T16:59:24.609Z,2.63
2018-12-14T17:01:52.842Z,2.57
2018-12-14T17:04:21.108Z,2.58
2018-12-14T17:06:49.400Z,2.58
2018-12-14T17:09:17.711Z,2.58
2018-12-14T17:11:45.910Z,2.61
2018-12-14T17:14:14.138Z,2.71
2018-12-14T17:16:42.369Z,2.77
2018-12-14T17:19:10.614Z,2.77
2018-12-14T17:21:38.802Z,2.81
2018-12-14T17:24:07.061Z,2.80
2018-12-14T17:26:35.301Z,2.80
2018-12-14T17:29:03.798Z,2.86
2018-12-14T17:31:32.015Z,2.93
2018-12-14T17:34:00.432Z,3.00
2018-12-14T17:36:28.636Z,2.97
2018-12-14T17:38:56.864Z,3.00
2018-12-14T17:41:25.097Z,2.98
2018-12-14T17:43:53.281Z,3.07
2018-12-14T17:46:21.642Z,3.03
2018-12-14T17:48:49.832Z,3.03
2018-12-14T17:51:18.077Z,3.08
2018-12-14T17:53:46.492Z,3.07
2018-12-14T17:56:14.677Z,3.04
2018-12-14T17:58:42.915Z,3.05
2018-12-14T18:01:11.109Z,3.01
2018-12-14T18:03:39.441Z,2.97
2018-12-14T18:06:07.721Z,2.99
2018-12-14T18:08:35.937Z,3.01
2018-12-14T18:11:04.316Z,3.00
2018-12-14T18:13:32.543Z,3.06
2018-12-14T18:16:00.745Z,3.07
2018-12-14T18:18:29.019Z,3.01
2018-12-14T18:20:57.332Z,3.03
2018-12-14T18:23:25.553Z,3.04
2018-12-14T18:25:53.789Z,3.01
2018-12-14T18:28:22.145Z,3.06
2018-12-14T18:30:50.340Z,3.10
2018-12-14T18:33:18.562Z,3.12
2018-12-14T18:35:46.811Z,3.06
2018-12-14T18:38:15.016Z,3.05
2018-12-14T18:40:43.231Z,3.02
2018-12-14T18:43:11.588Z,2.99
2018-12-14T18:45:39.777Z,3.02
2018-12-14T18:48:07.988Z,2.96
2018-12-14T18:50:36.226Z,3.00
2018-12-14T18:53:04.477Z,3.01
2018-12-14T18:55:32.692Z,2.91
2018-12-14T18:58:00.876Z,2.98
2018-12-14T19:00:29.208Z,3.03
2018-12-14T19:02:57.481Z,3.05
2018-12-14T19:05:25.751Z,3.09
2018-12-14T19:07:54.004Z,3.06
2018-12-14T19:10:22.248Z,3.11
2018-12-14T19:12:50.432Z,3.12
2018-12-14T19:15:19.044Z,3.06
2018-12-14T19:17:47.301Z,3.05
2018-12-14T19:20:15.496Z,3.03
2018-12-14T19:22:43.716Z,3.08
2018-12-14T19:25:11.969Z,3.08
2018-12-14T19:27:40.193Z,3.04
2018-12-14T19:30:08.609Z,3.02
2018-12-14T19:32:36.984Z,3.01
2018-12-14T19:35:05.973Z,2.95
2018-12-14T19:37:34.341Z,3.00
2018-12-14T19:40:02.666Z,2.94
2018-12-14T19:42:30.884Z,2.94
2018-12-14T19:44:59.237Z,2.90
2018-12-14T19:47:27.556Z,2.89
2018-12-14T19:49:55.888Z,2.87
2018-12-14T19:52:24.252Z,2.87
2018-12-14T19:54:52.636Z,2.87
2018-12-14T19:57:20.902Z,2.85
2018-12-14T19:59:49.096Z,2.83
2018-12-14T20:02:17.329Z,2.81
2018-12-14T20:04:45.768Z,2.73
2018-12-14T20:07:13.948Z,2.76
2018-12-14T20:09:42.208Z,2.78
2018-12-14T20:12:10.392Z,2.76
2018-12-14T20:14:38.700Z,2.80
2018-12-14T20:17:06.964Z,2.75
2018-12-14T20:19:35.289Z,2.79
2018-12-14T20:22:03.512Z,2.74
2018-12-14T20:24:31.760Z,2.79
2018-12-14T20:27:00.020Z,2.79
2018-12-14T20:29:28.314Z,2.77
2018-12-14T20:31:56.653Z,2.79
2018-12-14T20:34:24.900Z,2.78
2018-12-14T20:36:53.230Z,2.78
2018-12-14T20:39:21.703Z,2.78
2018-12-14T20:41:50.791Z,2.76
2018-12-14T20:44:19.048Z,2.74
2018-12-14T20:46:47.324Z,2.76
2018-12-14T20:49:15.539Z,2.79
2018-12-14T20:51:43.813Z,2.83
2018-12-14T20:54:12.232Z,2.85
2018-12-14T20:56:40.473Z,2.91
2018-12-14T20:59:08.713Z,2.85
2018-12-14T21:01:36.929Z,2.85
2018-12-14T21:04:05.333Z,2.79
2018-12-14T21:06:33.582Z,2.74
2018-12-14T21:09:01.873Z,2.75
2018-12-14T21:11:30.070Z,2.67
2018-12-14T21:13:58.337Z,2.66
2018-12-14T21:16:26.577Z,2.67
2018-12-14T21:18:54.805Z,2.72
2018-12-14T21:21:23.081Z,2.72
2018-12-14T21:23:51.283Z,2.78
2018-12-14T21:26:19.479Z,2.75
2018-12-14T21:28:47.737Z,2.74
2018-12-14T21:31:15.925Z,2.71
2018-12-14T21:33:44.252Z,2.64
2018-12-14T21:36:12.530Z,2.65
2018-12-14T21:38:40.724Z,2.67
2018-12-14T21:41:08.925Z,2.63
2018-12-14T21:43:37.161Z,2.61
2018-12-14T21:46:05.384Z,2.58
2018-12-14T21:48:33.664Z,2.61
2018-12-14T21:51:02.050Z,2.57
2018-12-14T21:53:30.276Z,2.62
2018-12-14T21:55:58.485Z,2.65
2018-12-14T21:58:26.711Z,2.67
2018-12-14T22:00:54.961Z,2.71
2018-12-14T22:03:23.192Z,2.72
2018-12-14T22:05:51.428Z,2.72
2018-12-14T22:08:19.625Z,2.74
2018-12-14T22:10:47.863Z,2.73
2018-12-14T22:13:16.161Z,2.74
2018-12-14T22:15:44.356Z,2.75
2018-12-14T22:18:12.748Z,2.76
2018-12-14T22:20:41.013Z,2.73
2018-12-14T22:23:09.253Z,2.71
2018-12-14T22:25:37.516Z,2.76
2018-12-14T22:28:05.763Z,2.75
2018-12-14T22:30:34.052Z,2.71
2018-12-14T22:33:02.293Z,2.74
2018-12-14T22:35:30.536Z,2.72
2018-12-14T22:37:58.832Z,2.68
2018-12-14T22:40:27.025Z,2.63
2018-12-14T22:42:55.856Z,2.65
2018-12-14T22:45:24.040Z,2.66
2018-12-14T22:47:52.264Z,2.60
2018-12-14T22:50:20.480Z,2.61
2018-12-14T22:52:48.729Z,2.57
2018-12-14T22:55:16.953Z,2.51
2018-12-14T22:57:45.149Z,2.50
2018-12-14T23:00:16.517Z,2.49
2018-12-14T23:02:44.710Z,2.50
2018-12-14T23:05:13.060Z,2.50
2018-12-14T23:07:41.256Z,2.47
2018-12-14T23:10:09.698Z,2.50
2018-12-14T23:12:38.044Z,2.49
2018-12-14T23:15:06.812Z,2.50
2018-12-14T23:17:35.101Z,2.47
2018-12-14T23:20:03.447Z,2.44
2018-12-14T23:22:31.760Z,2.45
2018-12-14T23:25:00.007Z,2.37
2018-12-14T23:27:28.208Z,2.40
2018-12-14T23:29:56.389Z,2.36
2018-12-14T23:32:24.641Z,2.42
2018-12-14T23:34:52.845Z,2.45
2018-12-14T23:37:21.156Z,2.47
2018-12-14T23:39:49.469Z,2.49
2018-12-14T23:42:17.680Z,2.52
2018-12-14T23:44:45.912Z,2.51
2018-12-14T23:47:14.172Z,2.54
2018-12-14T23:49:42.432Z,2.53
2018-12-14T23:52:10.668Z,2.57
2018-12-14T23:54:38.866Z,2.52
2018-12-14T23:57:12.239Z,2.57
2018-12-14T23:59:37.268Z,2.59
